Time;durP1;ratioP1;P1;durP2;ratioP2;P2;SDS_P1;SDS_P2;PMS_P1;PMS_P2;Temp;Humidity;BMP_temperature;BMP_pressure;BME280_temperature;BME280_humidity;BME280_pressure;Samples;Min_cycle;Max_cycle;Signal;HPM_P1;HPM_P2
2023/02/08 00:01:20;;;;;;;23.40;15.68;;;-2.70;99.90;;;;;;5013314;28;20088;-65
2023/02/08 00:03:47;;;;;;;25.80;16.40;;;-2.70;99.90;;;;;;5014135;28;20504;-65
2023/02/08 00:06:13;;;;;;;23.10;17.00;;;-2.70;99.90;;;;;;4995587;28;20974;-65
2023/02/08 00:08:39;;;;;;;25.05;15.10;;;-2.70;99.90;;;;;;4995599;28;20445;-65
2023/02/08 00:11:06;;;;;;;26.50;17.10;;;-2.70;99.90;;;;;;4994377;28;20041;-65
2023/02/08 00:13:33;;;;;;;24.13;16.60;;;-2.70;99.90;;;;;;5013199;28;20041;-66
2023/02/08 00:15:59;;;;;;;21.80;15.60;;;-2.70;99.90;;;;;;4995483;28;20669;-66
2023/02/08 00:18:25;;;;;;;22.60;16.77;;;-2.80;99.90;;;;;;5012265;28;20040;-66
2023/02/08 00:20:51;;;;;;;25.90;19.23;;;-2.80;99.90;;;;;;4993258;28;20045;-66
2023/02/08 00:23:17;;;;;;;27.88;19.55;;;-2.80;99.90;;;;;;5013307;28;20034;-66
2023/02/08 00:25:43;;;;;;;27.35;19.58;;;-2.70;99.90;;;;;;4995157;28;20390;-65
2023/02/08 00:28:14;;;;;;;26.13;19.75;;;-2.70;99.90;;;;;;4993057;28;20038;-66
2023/02/08 00:30:41;;;;;;;25.10;17.63;;;-2.70;99.90;;;;;;5011167;28;20042;-66
2023/02/08 00:33:07;;;;;;;24.85;17.33;;;-2.70;99.90;;;;;;4994236;28;20041;-66
2023/02/08 00:35:32;;;;;;;23.48;16.88;;;-2.70;99.90;;;;;;4993646;28;20088;-65
2023/02/08 00:37:58;;;;;;;22.45;18.30;;;-2.80;99.90;;;;;;5010621;28;20133;-66
2023/02/08 00:40:25;;;;;;;24.65;16.98;;;-2.80;99.90;;;;;;4995055;28;20462;-66
2023/02/08 00:42:50;;;;;;;23.98;18.10;;;-2.80;99.90;;;;;;4993576;28;20045;-66
2023/02/08 00:45:16;;;;;;;24.92;18.80;;;-2.80;99.90;;;;;;5012932;28;20050;-66
2023/02/08 00:47:42;;;;;;;25.42;17.67;;;-2.80;99.90;;;;;;4975012;28;20475;-66
2023/02/08 00:50:09;;;;;;;24.20;17.55;;;-2.80;99.90;;;;;;4994051;28;20048;-66
2023/02/08 00:52:36;;;;;;;23.50;17.83;;;-2.80;99.90;;;;;;5011731;28;20041;-66
2023/02/08 00:55:01;;;;;;;28.20;18.50;;;-2.80;99.90;;;;;;5012310;28;20162;-65
2023/02/08 00:57:27;;;;;;;25.83;18.42;;;-2.90;99.90;;;;;;5011694;28;20077;-65
2023/02/08 00:59:53;;;;;;;29.17;19.52;;;-2.90;99.90;;;;;;4995360;28;20111;-66
2023/02/08 01:02:18;;;;;;;29.55;19.30;;;-2.90;99.90;;;;;;5011798;28;20482;-65
2023/02/08 01:04:44;;;;;;;26.67;18.90;;;-2.90;99.90;;;;;;4994255;28;20076;-66
2023/02/08 01:07:10;;;;;;;24.95;17.27;;;-2.90;99.90;;;;;;4993572;28;20644;-66
2023/02/08 01:09:36;;;;;;;26.98;17.77;;;-2.80;99.90;;;;;;5012347;28;20045;-66
2023/02/08 01:12:02;;;;;;;24.98;17.88;;;-2.90;99.90;;;;;;4986122;28;20073;-66
2023/02/08 01:14:28;;;;;;;24.30;16.90;;;-2.90;99.90;;;;;;5012715;28;20045;-66
2023/02/08 01:16:54;;;;;;;25.88;18.45;;;-2.90;99.90;;;;;;4980596;28;20038;-65
2023/02/08 01:19:20;;;;;;;21.17;15.93;;;-2.90;99.90;;;;;;4993445;28;20036;-66
2023/02/08 01:21:47;;;;;;;25.55;17.45;;;-3.00;99.90;;;;;;4992116;28;20041;-65
2023/02/08 01:24:14;;;;;;;26.75;18.73;;;-3.00;99.90;;;;;;5010222;28;20065;-65
2023/02/08 01:26:40;;;;;;;29.17;19.25;;;-3.00;99.90;;;;;;4993998;28;20038;-65
2023/02/08 01:29:06;;;;;;;25.40;18.00;;;-3.00;99.90;;;;;;4993116;28;20053;-65
2023/02/08 01:31:37;;;;;;;25.75;17.55;;;-3.00;99.90;;;;;;4991907;28;20053;-65
2023/02/08 01:34:04;;;;;;;24.80;17.05;;;-2.90;99.90;;;;;;4993958;28;20057;-65
2023/02/08 01:36:32;;;;;;;26.92;17.73;;;-3.00;99.90;;;;;;5009738;28;20536;-65
2023/02/08 01:38:58;;;;;;;25.95;18.27;;;-3.00;99.90;;;;;;4992520;28;20447;-65
2023/02/08 01:41:27;;;;;;;24.88;18.23;;;-3.00;99.90;;;;;;4993832;28;20065;-65
2023/02/08 01:44:10;;;;;;;25.67;18.13;;;-3.00;99.90;;;;;;5010071;28;20044;-65
2023/02/08 01:46:50;;;;;;;25.40;18.00;;;-3.00;99.90;;;;;;5011029;28;20073;-65
2023/02/08 01:49:24;;;;;;;25.48;18.50;;;-3.00;99.90;;;;;;5006647;28;20052;-65
2023/02/08 01:51:59;;;;;;;26.85;17.92;;;-3.00;99.90;;;;;;4991098;28;20148;-65
2023/02/08 01:54:29;;;;;;;23.13;17.55;;;-3.00;99.90;;;;;;5010139;28;20180;-65
2023/02/08 01:56:55;;;;;;;24.05;17.92;;;-3.00;99.90;;;;;;4987238;28;20049;-65
2023/02/08 01:59:41;;;;;;;24.30;17.83;;;-3.10;99.90;;;;;;5010167;28;20034;-65
2023/02/08 02:02:10;;;;;;;24.05;17.42;;;-3.10;99.90;;;;;;4993268;28;20054;-65
2023/02/08 02:04:36;;;;;;;24.60;17.60;;;-3.10;99.90;;;;;;4993301;28;20053;-65
2023/02/08 02:07:04;;;;;;;25.35;18.00;;;-3.10;99.90;;;;;;5011119;28;20033;-65
2023/02/08 02:09:33;;;;;;;25.52;18.05;;;-3.10;99.90;;;;;;5010993;28;20041;-65
2023/02/08 02:11:59;;;;;;;27.65;17.75;;;-3.10;99.90;;;;;;5011440;28;20068;-65
2023/02/08 02:14:25;;;;;;;25.13;17.77;;;-3.10;99.90;;;;;;5009498;28;20038;-66
2023/02/08 02:16:51;;;;;;;23.83;17.58;;;-3.10;99.90;;;;;;4993493;28;20494;-65
2023/02/08 02:19:28;;;;;;;23.67;17.75;;;-3.10;99.90;;;;;;5010482;28;20037;-65
2023/02/08 02:22:22;;;;;;;25.60;19.17;;;-3.20;99.90;;;;;;4993121;28;20041;-66
2023/02/08 02:24:47;;;;;;;25.38;17.77;;;-3.20;99.90;;;;;;4989360;28;20523;-65
2023/02/08 02:27:19;;;;;;;25.75;18.40;;;-3.20;99.90;;;;;;5009059;28;20096;-66
2023/02/08 02:30:13;;;;;;;23.27;16.95;;;-3.20;99.90;;;;;;4992134;28;20124;-65
2023/02/08 02:32:54;;;;;;;24.88;17.58;;;-3.20;99.90;;;;;;4991799;28;20069;-65
2023/02/08 02:35:46;;;;;;;25.27;18.38;;;-3.20;99.90;;;;;;5010200;28;20100;-65
2023/02/08 02:38:33;;;;;;;24.58;18.08;;;-3.30;99.90;;;;;;5009599;28;20092;-65
2023/02/08 02:43:40;;;;;;;24.83;18.33;;;-3.20;99.90;;;;;;4991156;28;20505;-65
2023/02/08 02:44:13;;;;;;;27.02;17.88;;;-3.30;99.90;;;;;;4978485;28;20443;-65
2023/02/08 02:47:25;;;;;;;23.13;17.10;;;-3.30;99.90;;;;;;5007532;28;20375;-65
2023/02/08 02:49:57;;;;;;;24.70;17.13;;;-3.30;99.90;;;;;;4998713;28;20042;-66
2023/02/08 02:52:32;;;;;;;22.50;16.52;;;-3.30;99.90;;;;;;4992316;28;20727;-65
2023/02/08 02:55:06;;;;;;;23.65;16.55;;;-3.30;99.90;;;;;;5009883;28;20050;-66
2023/02/08 02:57:33;;;;;;;24.38;17.15;;;-3.30;99.90;;;;;;4985315;28;20463;-66
2023/02/08 02:59:59;;;;;;;23.02;16.65;;;-3.40;99.90;;;;;;5008450;28;20528;-65
2023/02/08 03:02:27;;;;;;;24.67;17.10;;;-3.40;99.90;;;;;;4980479;28;20056;-65
2023/02/08 03:04:56;;;;;;;24.70;17.67;;;-3.40;99.90;;;;;;4992112;28;20062;-65
2023/02/08 03:07:50;;;;;;;23.75;17.58;;;-3.40;99.90;;;;;;4991176;28;20041;-65
2023/02/08 03:10:53;;;;;;;26.48;17.27;;;-3.40;99.90;;;;;;5013517;28;20382;-65
2023/02/08 03:13:38;;;;;;;28.63;18.52;;;-3.40;99.90;;;;;;4993878;28;20377;-65
2023/02/08 03:16:15;;;;;;;24.43;17.43;;;-3.50;99.90;;;;;;4995332;28;20042;-65
2023/02/08 03:18:53;;;;;;;26.45;18.40;;;-3.40;99.90;;;;;;4995483;28;20048;-65
2023/02/08 03:21:58;;;;;;;28.15;18.98;;;-3.40;99.90;;;;;;4992246;28;20042;-65
2023/02/08 03:24:27;;;;;;;25.20;17.95;;;-3.40;99.90;;;;;;4993809;28;20042;-65
2023/02/08 03:27:26;;;;;;;27.02;18.55;;;-3.40;99.90;;;;;;4995073;28;20133;-65
2023/02/08 03:30:17;;;;;;;23.20;17.33;;;-3.40;99.90;;;;;;5013780;28;20037;-65
2023/02/08 03:32:49;;;;;;;27.23;19.35;;;-3.40;99.90;;;;;;4995758;28;20053;-65
2023/02/08 03:35:27;;;;;;;27.48;18.85;;;-3.50;99.90;;;;;;5013545;28;20049;-65
2023/02/08 03:38:00;;;;;;;25.40;18.35;;;-3.40;99.90;;;;;;4993341;28;20057;-65
2023/02/08 03:40:31;;;;;;;27.25;18.65;;;-3.40;99.90;;;;;;5013318;28;20042;-65
2023/02/08 03:43:04;;;;;;;23.70;18.20;;;-3.40;99.90;;;;;;4994724;28;20076;-65
2023/02/08 03:45:34;;;;;;;29.02;18.80;;;-3.30;99.90;;;;;;4994887;28;20058;-65
2023/02/08 03:48:04;;;;;;;26.75;18.58;;;-3.40;99.90;;;;;;5014207;28;20042;-65
2023/02/08 03:50:33;;;;;;;25.40;18.42;;;-3.40;99.90;;;;;;5013647;28;20054;-65
2023/02/08 03:53:00;;;;;;;29.55;20.42;;;-3.30;99.90;;;;;;4997654;28;20143;-66
2023/02/08 03:55:32;;;;;;;29.42;19.92;;;-3.30;99.90;;;;;;5013817;28;20053;-65
2023/02/08 03:58:06;;;;;;;25.60;17.58;;;-3.30;99.90;;;;;;5013418;28;20045;-65
2023/02/08 04:00:37;;;;;;;28.97;19.03;;;-3.30;99.90;;;;;;4996837;28;20046;-64
2023/02/08 04:03:20;;;;;;;28.30;19.00;;;-3.30;99.90;;;;;;4986630;28;20307;-65
2023/02/08 04:05:46;;;;;;;26.52;17.83;;;-3.30;99.90;;;;;;4993953;28;20038;-65
2023/02/08 04:08:12;;;;;;;27.15;19.15;;;-3.40;99.90;;;;;;4994181;28;20104;-64
2023/02/08 04:10:38;;;;;;;26.75;19.10;;;-3.40;99.90;;;;;;4993837;28;20041;-65
2023/02/08 04:13:04;;;;;;;26.60;19.52;;;-3.40;99.90;;;;;;5012971;28;20038;-65
2023/02/08 04:15:30;;;;;;;25.02;18.73;;;-3.40;99.90;;;;;;4995573;28;20627;-65
2023/02/08 04:17:55;;;;;;;24.67;19.48;;;-3.40;99.90;;;;;;4995596;28;20509;-64
2023/02/08 04:20:21;;;;;;;27.60;19.00;;;-3.30;99.90;;;;;;5009642;28;20044;-65
2023/02/08 04:22:47;;;;;;;25.80;18.77;;;-3.40;99.90;;;;;;5012440;28;20042;-65
2023/02/08 04:25:13;;;;;;;28.05;19.00;;;-3.30;99.90;;;;;;4994255;28;20046;-65
2023/02/08 04:27:40;;;;;;;24.55;18.00;;;-3.30;99.90;;;;;;4995836;28;20064;-65
2023/02/08 04:30:06;;;;;;;28.20;19.30;;;-3.40;99.90;;;;;;4994455;28;20454;-65
2023/02/08 04:32:32;;;;;;;25.60;18.70;;;-3.40;99.90;;;;;;5012996;28;20042;-64
2023/02/08 04:34:58;;;;;;;26.13;18.42;;;-3.50;99.90;;;;;;5010665;28;20116;-65
2023/02/08 04:37:23;;;;;;;26.92;19.05;;;-3.50;99.90;;;;;;4995569;28;20054;-65
2023/02/08 04:39:49;;;;;;;26.00;19.02;;;-3.40;99.90;;;;;;4991327;28;20038;-65
2023/02/08 04:42:15;;;;;;;25.05;19.73;;;-3.40;99.90;;;;;;4994200;28;20038;-65
2023/02/08 04:44:41;;;;;;;28.33;19.77;;;-3.40;99.90;;;;;;5012661;28;20089;-65
2023/02/08 04:47:07;;;;;;;28.98;21.40;;;-3.40;99.90;;;;;;4994951;28;20478;-65
2023/02/08 04:49:32;;;;;;;28.63;19.90;;;-3.30;99.90;;;;;;5011531;28;20042;-65
2023/02/08 04:51:58;;;;;;;31.23;20.60;;;-3.30;99.90;;;;;;5011089;28;20387;-64
2023/02/08 04:54:24;;;;;;;30.90;21.67;;;-3.20;99.90;;;;;;4993320;28;20035;-66
2023/02/08 04:56:50;;;;;;;29.90;20.70;;;-3.20;99.90;;;;;;5010321;28;20088;-65
2023/02/08 04:59:16;;;;;;;30.20;20.63;;;-3.20;99.90;;;;;;5012707;28;20042;-65
2023/02/08 05:01:41;;;;;;;28.17;20.05;;;-3.20;99.90;;;;;;4993809;28;20045;-64
2023/02/08 05:04:07;;;;;;;25.88;19.85;;;-3.20;99.90;;;;;;5012746;28;20053;-67
2023/02/08 05:06:33;;;;;;;29.77;20.02;;;-3.20;99.90;;;;;;5011719;28;20096;-65
2023/02/08 05:08:58;;;;;;;31.65;21.35;;;-3.20;99.90;;;;;;5008427;28;20061;-65
2023/02/08 05:11:25;;;;;;;30.70;21.45;;;-3.20;99.90;;;;;;4993854;28;20053;-65
2023/02/08 05:13:51;;;;;;;29.35;20.67;;;-3.30;99.90;;;;;;5012299;28;20096;-65
2023/02/08 05:16:17;;;;;;;29.20;20.77;;;-3.20;99.90;;;;;;4993978;28;20044;-65
2023/02/08 05:18:43;;;;;;;29.60;22.38;;;-3.20;99.90;;;;;;4994581;28;20056;-65
2023/02/08 05:21:10;;;;;;;33.80;21.88;;;-3.30;99.90;;;;;;4992820;28;20382;-65
2023/02/08 05:23:36;;;;;;;27.73;19.58;;;-3.30;99.90;;;;;;5009502;28;20385;-65
2023/02/08 05:26:09;;;;;;;29.25;21.48;;;-3.30;99.90;;;;;;5011251;28;20092;-65
2023/02/08 05:28:35;;;;;;;29.65;21.13;;;-3.20;99.90;;;;;;5011507;28;20038;-65
2023/02/08 05:31:17;;;;;;;31.55;20.23;;;-3.30;99.90;;;;;;4993318;28;20083;-65
2023/02/08 05:33:43;;;;;;;30.67;21.50;;;-3.30;99.90;;;;;;5011846;28;20049;-65
2023/02/08 05:36:09;;;;;;;30.33;21.33;;;-3.20;99.90;;;;;;5010889;28;20032;-66
2023/02/08 05:38:34;;;;;;;29.05;21.10;;;-3.30;99.90;;;;;;4977703;28;20046;-65
2023/02/08 05:41:00;;;;;;;32.53;21.65;;;-3.30;99.90;;;;;;4992801;28;20042;-64
2023/02/08 05:43:26;;;;;;;33.38;22.73;;;-3.30;99.90;;;;;;5011195;28;20038;-64
2023/02/08 05:45:52;;;;;;;31.20;22.55;;;-3.30;99.90;;;;;;4993091;28;20069;-65
2023/02/08 05:48:18;;;;;;;30.85;22.27;;;-3.30;99.90;;;;;;4990431;28;20057;-64
2023/02/08 05:50:43;;;;;;;34.38;21.83;;;-3.30;99.90;;;;;;5009309;28;20050;-64
2023/02/08 05:53:10;;;;;;;35.00;23.80;;;-3.30;99.90;;;;;;4985599;28;20034;-64
2023/02/08 05:55:36;;;;;;;30.35;21.48;;;-3.20;99.90;;;;;;5011006;28;20057;-63
2023/02/08 05:58:01;;;;;;;32.33;21.60;;;-3.30;99.90;;;;;;4993756;28;20054;-64
2023/02/08 06:00:27;;;;;;;29.33;22.02;;;-3.20;99.90;;;;;;5004124;28;20328;-65
2023/02/08 06:02:53;;;;;;;30.25;21.20;;;-3.30;99.90;;;;;;5008640;28;20077;-64
2023/02/08 06:05:18;;;;;;;31.58;22.10;;;-3.30;99.90;;;;;;5009259;28;20393;-64
2023/02/08 06:07:44;;;;;;;31.05;21.42;;;-3.30;99.90;;;;;;4973783;28;20042;-64
2023/02/08 06:10:10;;;;;;;30.73;21.50;;;-3.30;99.90;;;;;;5009495;28;20616;-64
2023/02/08 06:12:36;;;;;;;33.25;24.08;;;-3.30;99.90;;;;;;5009422;28;20042;-64
2023/02/08 06:15:02;;;;;;;32.42;23.13;;;-3.30;99.90;;;;;;5008919;28;20104;-64
2023/02/08 06:17:27;;;;;;;31.90;22.58;;;-3.30;99.90;;;;;;5002776;28;20474;-64
2023/02/08 06:19:53;;;;;;;30.60;22.70;;;-3.30;99.90;;;;;;4988783;28;20049;-65
2023/02/08 06:22:19;;;;;;;32.85;23.23;;;-3.30;99.90;;;;;;5008205;28;20481;-64
2023/02/08 06:24:45;;;;;;;33.15;24.35;;;-3.30;99.90;;;;;;5010423;28;20034;-63
2023/02/08 06:27:10;;;;;;;35.83;22.77;;;-3.30;99.90;;;;;;4990847;28;20050;-64
2023/02/08 06:29:36;;;;;;;31.58;22.75;;;-3.30;99.90;;;;;;5010359;28;20113;-64
2023/02/08 06:32:02;;;;;;;29.73;22.35;;;-3.30;99.90;;;;;;5009736;28;20045;-63
2023/02/08 06:34:27;;;;;;;32.72;22.20;;;-3.30;99.90;;;;;;4989852;28;20038;-63
2023/02/08 06:36:53;;;;;;;28.00;21.63;;;-3.30;99.90;;;;;;4989571;28;20049;-63
2023/02/08 06:39:19;;;;;;;33.47;23.10;;;-3.30;99.90;;;;;;5010275;28;20433;-64
2023/02/08 06:41:44;;;;;;;31.55;21.83;;;-3.40;99.90;;;;;;5007558;28;20037;-64
2023/02/08 06:44:10;;;;;;;32.58;23.45;;;-3.40;99.90;;;;;;4994021;28;20610;-64
2023/02/08 06:46:36;;;;;;;30.33;21.55;;;-3.40;99.90;;;;;;5015509;28;20050;-64
2023/02/08 06:49:02;;;;;;;34.08;21.95;;;-3.40;99.90;;;;;;5016417;28;20069;-64
2023/02/08 06:51:27;;;;;;;31.88;22.75;;;-3.40;99.90;;;;;;5014830;28;20037;-63
2023/02/08 06:53:53;;;;;;;32.63;22.25;;;-3.40;99.90;;;;;;5014782;28;20109;-64
2023/02/08 06:56:19;;;;;;;31.75;22.92;;;-3.40;99.90;;;;;;5013267;28;20160;-65
2023/02/08 06:58:45;;;;;;;34.30;23.40;;;-3.40;99.90;;;;;;4995753;28;20084;-64
2023/02/08 07:01:12;;;;;;;38.85;26.08;;;-3.30;99.90;;;;;;5013061;28;20048;-64
2023/02/08 07:03:38;;;;;;;33.60;23.77;;;-3.40;99.90;;;;;;4995007;28;20053;-64
2023/02/08 07:06:04;;;;;;;37.00;25.65;;;-3.30;99.90;;;;;;4996811;28;20423;-64
2023/02/08 07:08:31;;;;;;;32.88;22.67;;;-3.30;99.90;;;;;;5014185;28;20184;-64
2023/02/08 07:10:56;;;;;;;32.13;23.27;;;-3.40;99.90;;;;;;5013995;28;20166;-64
2023/02/08 07:13:22;;;;;;;35.45;23.45;;;-3.30;99.90;;;;;;4995451;28;20618;-65
2023/02/08 07:15:48;;;;;;;31.50;23.38;;;-3.30;99.90;;;;;;4997338;28;20157;-65
2023/02/08 07:18:13;;;;;;;30.90;22.38;;;-3.30;99.90;;;;;;4997979;28;20058;-65
2023/02/08 07:20:39;;;;;;;32.55;22.67;;;-3.20;99.90;;;;;;5015084;28;20128;-65
2023/02/08 07:23:05;;;;;;;36.15;23.00;;;-3.20;99.90;;;;;;4996982;28;20034;-65
2023/02/08 07:25:30;;;;;;;32.42;22.95;;;-3.20;99.90;;;;;;4996889;28;20038;-66
2023/02/08 07:27:56;;;;;;;33.13;22.95;;;-3.20;99.90;;;;;;4997732;28;20462;-65
2023/02/08 07:30:22;;;;;;;38.42;25.90;;;-3.20;99.90;;;;;;4997041;28;20073;-65
2023/02/08 07:32:47;;;;;;;33.42;23.05;;;-3.20;99.90;;;;;;5015078;28;20125;-65
2023/02/08 07:35:13;;;;;;;33.78;22.58;;;-3.10;99.90;;;;;;5007509;28;20069;-65
2023/02/08 07:37:39;;;;;;;33.40;22.45;;;-3.10;99.90;;;;;;5016878;28;20146;-65
2023/02/08 07:40:05;;;;;;;32.92;23.15;;;-3.00;99.90;;;;;;4999367;28;20030;-65
2023/02/08 07:42:32;;;;;;;32.65;23.65;;;-2.90;99.90;;;;;;4996064;28;20038;-65
2023/02/08 07:44:59;;;;;;;36.72;24.38;;;-2.70;99.90;;;;;;5015865;28;20096;-65
2023/02/08 07:47:24;;;;;;;34.53;23.92;;;-2.60;99.90;;;;;;5016678;28;20046;-66
2023/02/08 07:49:50;;;;;;;35.97;23.42;;;-2.40;99.90;;;;;;5016435;28;20034;-65
2023/02/08 07:52:16;;;;;;;37.45;24.40;;;-2.10;99.90;;;;;;5015168;28;20040;-65
2023/02/08 07:54:41;;;;;;;32.38;24.27;;;-1.70;99.90;;;;;;4995824;28;20422;-65
2023/02/08 07:57:07;;;;;;;31.50;22.80;;;-1.20;99.90;;;;;;5012417;28;20038;-65
2023/02/08 07:59:33;;;;;;;29.90;22.65;;;-0.50;99.90;;;;;;4994383;28;20192;-65
2023/02/08 08:01:59;;;;;;;23.92;19.85;;;0.30;99.90;;;;;;5011728;28;20042;-65
2023/02/08 08:04:24;;;;;;;26.70;20.33;;;1.20;99.90;;;;;;4994891;28;20037;-65
2023/02/08 08:06:50;;;;;;;23.38;19.33;;;2.00;99.90;;;;;;5010754;28;20662;-65
2023/02/08 08:09:16;;;;;;;21.73;18.33;;;2.80;99.90;;;;;;5011718;28;20026;-65
2023/02/08 08:11:41;;;;;;;22.55;19.83;;;3.30;99.90;;;;;;5012949;28;20089;-65
2023/02/08 08:14:07;;;;;;;20.65;18.15;;;4.10;99.90;;;;;;5013806;28;20065;-65
2023/02/08 08:16:33;;;;;;;22.45;18.23;;;4.80;99.90;;;;;;5008993;28;20512;-65
2023/02/08 08:18:58;;;;;;;21.55;19.02;;;5.40;99.90;;;;;;4995014;28;20042;-65
2023/02/08 08:21:24;;;;;;;21.70;17.67;;;5.90;99.90;;;;;;5012026;28;20409;-64
2023/02/08 08:23:50;;;;;;;19.50;17.35;;;6.60;99.90;;;;;;5013042;28;20053;-65
2023/02/08 08:26:18;;;;;;;20.33;17.63;;;7.10;99.90;;;;;;5013044;28;20038;-65
2023/02/08 08:28:45;;;;;;;20.95;17.30;;;7.40;99.90;;;;;;5013166;28;20042;-65
2023/02/08 08:31:20;;;;;;;19.52;16.75;;;7.60;99.90;;;;;;5010747;28;20163;-65
2023/02/08 08:33:47;;;;;;;18.98;16.95;;;7.70;99.90;;;;;;5012999;28;20038;-65
2023/02/08 08:36:13;;;;;;;20.10;17.92;;;8.10;99.90;;;;;;5011548;28;20469;-66
2023/02/08 08:38:39;;;;;;;20.42;17.48;;;8.60;99.90;;;;;;5012254;28;20046;-66
2023/02/08 08:41:10;;;;;;;18.40;16.50;;;9.10;99.90;;;;;;5009545;28;20108;-66
2023/02/08 08:43:36;;;;;;;19.73;17.63;;;9.30;99.90;;;;;;5012281;28;20152;-66
2023/02/08 08:46:04;;;;;;;19.83;17.65;;;9.40;99.90;;;;;;5011820;28;20525;-65
2023/02/08 08:48:30;;;;;;;18.52;16.63;;;9.30;99.90;;;;;;5011739;28;20044;-66
2023/02/08 08:50:56;;;;;;;17.55;15.77;;;9.40;99.90;;;;;;5011105;28;20120;-66
2023/02/08 08:53:22;;;;;;;18.10;16.20;;;9.60;99.90;;;;;;5011460;28;20065;-65
2023/02/08 08:55:47;;;;;;;19.83;17.40;;;9.60;99.90;;;;;;5011285;28;20497;-66
2023/02/08 08:58:13;;;;;;;18.25;16.17;;;9.70;99.90;;;;;;5011123;28;20049;-65
2023/02/08 09:00:39;;;;;;;18.52;16.65;;;10.10;99.90;;;;;;5008245;28;20041;-65
2023/02/08 09:03:05;;;;;;;19.17;16.30;;;10.50;99.90;;;;;;5010313;28;20037;-66
2023/02/08 09:05:30;;;;;;;17.77;16.02;;;10.90;99.90;;;;;;5010514;28;20044;-66
2023/02/08 09:07:56;;;;;;;17.40;15.60;;;11.30;99.90;;;;;;4993336;28;20390;-66
2023/02/08 09:10:22;;;;;;;18.45;16.50;;;11.80;99.90;;;;;;4993057;28;20145;-67
2023/02/08 09:12:48;;;;;;;16.35;14.73;;;12.10;99.90;;;;;;4993823;28;20033;-67
2023/02/08 09:15:14;;;;;;;17.67;15.80;;;12.60;99.90;;;;;;4994463;28;20089;-68
2023/02/08 09:17:39;;;;;;;17.77;15.95;;;12.90;99.90;;;;;;4977603;28;20103;-68
2023/02/08 09:20:05;;;;;;;17.42;15.70;;;13.10;99.90;;;;;;5011441;28;20127;-68
2023/02/08 09:22:31;;;;;;;17.58;15.93;;;13.30;99.90;;;;;;4994135;28;20482;-68
2023/02/08 09:24:57;;;;;;;16.45;14.93;;;13.70;99.90;;;;;;4991349;28;20042;-69
2023/02/08 09:27:22;;;;;;;16.85;15.25;;;14.20;99.70;;;;;;5011574;28;20486;-69
2023/02/08 09:29:48;;;;;;;16.40;14.70;;;14.40;98.00;;;;;;4993433;28;20173;-68
2023/02/08 09:32:14;;;;;;;15.40;14.00;;;14.80;97.20;;;;;;5010997;28;20149;-69
2023/02/08 09:34:40;;;;;;;15.48;13.98;;;15.30;96.20;;;;;;5010983;28;20034;-67
2023/02/08 09:37:06;;;;;;;16.38;14.75;;;15.50;94.80;;;;;;4993467;28;20364;-67
2023/02/08 09:39:31;;;;;;;15.48;13.98;;;15.40;92.90;;;;;;4992871;28;20145;-67
2023/02/08 09:42:19;;;;;;;17.40;14.27;;;15.40;92.70;;;;;;4995425;28;20034;-66
2023/02/08 09:45:13;;;;;;;15.85;14.35;;;15.40;90.30;;;;;;5010385;28;20062;-66
2023/02/08 09:48:03;;;;;;;15.93;14.43;;;15.60;90.80;;;;;;5000188;28;20179;-66
2023/02/08 09:50:47;;;;;;;16.02;14.55;;;15.60;84.20;;;;;;5009656;28;20053;-67
2023/02/08 09:53:36;;;;;;;14.35;13.15;;;15.40;89.40;;;;;;4992882;28;20037;-66
2023/02/08 09:56:10;;;;;;;15.15;13.75;;;15.00;84.90;;;;;;5010733;28;20030;-66
2023/02/08 09:58:49;;;;;;;14.68;13.27;;;14.70;90.00;;;;;;5010520;28;20474;-67
2023/02/08 10:01:31;;;;;;;15.43;13.82;;;14.60;86.20;;;;;;5009696;28;20065;-67
2023/02/08 10:04:01;;;;;;;14.60;13.30;;;14.70;87.30;;;;;;5010953;28;20308;-66
2023/02/08 10:06:29;;;;;;;14.25;12.85;;;14.60;87.50;;;;;;5009565;28;20634;-66
2023/02/08 10:08:56;;;;;;;13.73;12.43;;;14.60;86.20;;;;;;5009833;28;20123;-66
2023/02/08 10:11:39;;;;;;;14.15;12.88;;;14.40;86.10;;;;;;5010182;28;20052;-66
2023/02/08 10:14:49;;;;;;;15.10;13.70;;;14.50;84.90;;;;;;4993015;28;20429;-66
2023/02/08 10:17:36;;;;;;;15.18;13.70;;;14.50;81.40;;;;;;4997700;28;20147;-66
2023/02/08 10:20:14;;;;;;;13.50;12.25;;;14.40;86.10;;;;;;5009702;28;20121;-66
2023/02/08 10:22:58;;;;;;;15.00;13.50;;;14.40;84.40;;;;;;5007509;28;20145;-66
2023/02/08 10:25:50;;;;;;;14.38;13.10;;;14.30;83.10;;;;;;4992648;28;20045;-67
2023/02/08 10:28:28;;;;;;;14.70;13.35;;;14.10;84.50;;;;;;5009097;28;20052;-66
2023/02/08 10:31:20;;;;;;;15.43;14.02;;;13.80;85.80;;;;;;4993123;28;20474;-65
2023/02/08 10:33:56;;;;;;;14.05;12.65;;;14.10;85.10;;;;;;4992319;28;20071;-66
2023/02/08 10:36:28;;;;;;;14.50;13.15;;;14.40;85.80;;;;;;5009723;28;20156;-66
2023/02/08 10:38:55;;;;;;;12.90;11.65;;;14.50;86.00;;;;;;5009941;28;20060;-66
2023/02/08 10:41:35;;;;;;;13.57;12.27;;;14.60;84.90;;;;;;5010054;28;20137;-66
2023/02/08 10:44:12;;;;;;;12.80;11.60;;;14.80;82.80;;;;;;5009406;28;20045;-66
2023/02/08 10:46:46;;;;;;;12.40;11.30;;;15.20;80.20;;;;;;5009943;28;20072;-66
2023/02/08 10:49:28;;;;;;;12.13;10.93;;;15.50;81.60;;;;;;5009734;28;20126;-66
2023/02/08 10:51:54;;;;;;;12.13;10.70;;;15.60;79.80;;;;;;4989407;28;20046;-66
2023/02/08 10:54:19;;;;;;;12.25;11.15;;;15.70;78.90;;;;;;5010133;28;20393;-67
2023/02/08 10:56:59;;;;;;;12.75;11.43;;;15.00;76.60;;;;;;5009131;28;20041;-66
2023/02/08 10:59:30;;;;;;;13.25;11.85;;;13.10;74.80;;;;;;5010639;28;20045;-66
2023/02/08 11:01:57;;;;;;;13.32;11.93;;;11.30;77.30;;;;;;5009471;28;20050;-66
2023/02/08 11:04:24;;;;;;;12.68;11.50;;;10.00;80.00;;;;;;5010065;28;20038;-66
2023/02/08 11:06:50;;;;;;;12.32;10.80;;;9.80;82.20;;;;;;5010166;28;20045;-66
2023/02/08 11:09:25;;;;;;;12.50;11.20;;;10.30;82.60;;;;;;5009559;28;20157;-66
2023/02/08 11:11:52;;;;;;;13.25;10.38;;;11.00;82.60;;;;;;5009362;28;20463;-66
2023/02/08 11:14:24;;;;;;;12.48;11.20;;;11.60;82.00;;;;;;5009323;28;20037;-66
2023/02/08 11:16:52;;;;;;;11.27;9.63;;;11.90;82.00;;;;;;5009406;28;20149;-67
2023/02/08 11:19:41;;;;;;;11.60;10.40;;;11.30;81.90;;;;;;4990725;28;20091;-66
2023/02/08 11:22:27;;;;;;;12.48;10.68;;;10.30;81.90;;;;;;5007766;28;20457;-66
2023/02/08 11:25:00;;;;;;;12.02;10.35;;;9.00;82.20;;;;;;5009271;28;20355;-66
2023/02/08 11:27:33;;;;;;;10.55;9.57;;;8.10;85.70;;;;;;4991441;28;20048;-66
2023/02/08 11:30:17;;;;;;;11.95;10.75;;;7.40;87.00;;;;;;5011990;28;21232;-66
2023/02/08 11:32:48;;;;;;;12.82;10.68;;;6.90;88.20;;;;;;5012398;28;20064;-66
2023/02/08 11:35:19;;;;;;;12.30;10.32;;;6.50;88.50;;;;;;5013304;28;20458;-65
2023/02/08 11:37:54;;;;;;;12.02;9.98;;;6.20;89.40;;;;;;5007041;28;20048;-66
2023/02/08 11:40:24;;;;;;;11.80;10.48;;;6.00;89.30;;;;;;5012752;28;20477;-66
2023/02/08 11:42:51;;;;;;;11.85;9.98;;;5.70;90.00;;;;;;4995296;28;20131;-65
2023/02/08 11:45:35;;;;;;;11.20;9.98;;;5.60;90.00;;;;;;5012966;28;20057;-65
2023/02/08 11:48:41;;;;;;;11.27;8.55;;;5.30;90.20;;;;;;5003708;28;20167;-65
2023/02/08 11:51:08;;;;;;;10.77;8.55;;;5.10;90.00;;;;;;4986043;28;20045;-65
2023/02/08 11:53:38;;;;;;;14.73;11.75;;;5.00;90.10;;;;;;5012815;28;20120;-65
2023/02/08 11:56:13;;;;;;;13.13;10.73;;;5.00;90.30;;;;;;4994753;28;20394;-65
2023/02/08 11:58:38;;;;;;;;;;;5.00;90.90;;;;;;5013270;28;20046;-65
2023/02/08 12:01:19;;;;;;;12.27;9.88;;;4.90;91.20;;;;;;4994937;28;20313;-65
2023/02/08 12:03:47;;;;;;;11.93;8.88;;;4.90;91.30;;;;;;5010975;28;20622;-65
2023/02/08 12:06:32;;;;;;;11.43;8.57;;;4.80;91.30;;;;;;5009961;28;20029;-65
2023/02/08 12:09:16;;;;;;;11.43;8.55;;;4.90;91.10;;;;;;5011102;28;20304;-65
2023/02/08 12:11:45;;;;;;;10.37;8.20;;;4.90;91.10;;;;;;4994830;28;20096;-65
2023/02/08 12:14:29;;;;;;;11.20;7.63;;;4.90;90.80;;;;;;5012202;28;20037;-65
2023/02/08 12:17:10;;;;;;;9.80;7.90;;;4.90;90.10;;;;;;5011497;28;20119;-65
2023/02/08 12:20:09;;;;;;;11.02;7.53;;;4.80;90.50;;;;;;4992616;28;20133;-65
2023/02/08 12:23:00;;;;;;;8.73;7.28;;;4.80;90.40;;;;;;5011648;28;20096;-67
2023/02/08 12:25:45;;;;;;;14.20;8.05;;;4.90;90.60;;;;;;5003069;28;20604;-67
2023/02/08 12:28:41;;;;;;;9.48;7.85;;;4.80;90.70;;;;;;5012189;28;20047;-64
2023/02/08 12:31:18;;;;;;;11.73;8.50;;;4.90;90.70;;;;;;5011901;28;20041;-66
2023/02/08 12:34:07;;;;;;;9.65;8.00;;;4.90;90.80;;;;;;5011414;28;20077;-66
2023/02/08 12:43:12;;;;;;;9.55;7.93;;;4.90;91.10;;;;;;5010644;28;20092;-66
2023/02/08 12:45:56;;;;;;;11.52;8.55;;;4.90;91.10;;;;;;4996544;28;20134;-64
2023/02/08 12:48:37;;;;;;;11.80;7.53;;;4.90;90.90;;;;;;5011796;28;20050;-65
2023/02/08 12:51:18;;;;;;;9.70;7.43;;;5.00;90.90;;;;;;5009401;28;20042;-65
2023/02/08 12:53:58;;;;;;;10.00;7.22;;;5.00;91.20;;;;;;4993676;28;20042;-65
2023/02/08 12:56:35;;;;;;;8.77;6.82;;;5.00;90.80;;;;;;5010310;28;20046;-65